Time;durP1;ratioP1;P1;durP2;ratioP2;P2;SDS_P1;SDS_P2;PMS_P1;PMS_P2;Temp;Humidity;BMP_temperature;BMP_pressure;BME280_temperature;BME280_humidity;BME280_pressure;Samples;Min_cycle;Max_cycle;Signal;HPM_P1;HPM_P2
2022/11/03 00:01:11;;;;;;;;;;;;;;;20.15;46.11;95666.81;6118904;19;1899;-69
2022/11/03 00:03:14;;;;;;;;;;;;;;;20.15;45.74;95667.63;6122018;19;2130;-69
2022/11/03 00:07:33;;;;;;;;;;;;;;;20.16;45.58;95679.94;6106225;19;2062;-67
2022/11/03 00:09:37;;;;;;;;;;;;;;;20.16;45.94;95673.78;6118575;19;1871;-69
2022/11/03 00:11:41;;;;;;;;;;;;;;;20.16;45.97;95674.59;6120712;19;2126;-69
2022/11/03 00:13:45;;;;;;;;;;;;;;;20.16;45.93;95679.94;6120403;19;1148;-69
2022/11/03 00:15:51;;;;;;;;;;;;;;;20.16;45.91;95685.28;6119765;19;1792;-69
2022/11/03 00:17:57;;;;;;;;;;;;;;;20.16;45.68;95677.28;6094919;19;2193;-68
2022/11/03 00:20:00;;;;;;;;;;;;;;;20.17;45.89;95681.59;6120435;19;1088;-69
2022/11/03 00:22:04;;;;;;;;;;;;;;;20.16;45.69;95679.94;6122386;19;1633;-69
2022/11/03 00:24:07;;;;;;;;;;;;;;;20.16;45.85;95684.47;6120089;19;1131;-69
2022/11/03 00:26:12;;;;;;;;;;;;;;;20.16;45.79;95679.13;6123309;19;1864;-68
2022/11/03 00:28:15;;;;;;;;;;;;;;;20.17;45.77;95683.44;6122430;19;1892;-69
2022/11/03 00:30:18;;;;;;;;;;;;;;;20.16;46.30;95679.94;6095722;19;1972;-69
2022/11/03 00:32:21;;;;;;;;;;;;;;;20.17;46.11;95688.78;6121796;19;2117;-69
2022/11/03 00:34:27;;;;;;;;;;;;;;;20.16;45.84;95685.28;6122243;19;1932;-69
2022/11/03 00:36:32;;;;;;;;;;;;;;;20.17;46.25;95673.56;6121888;19;1918;-68
2022/11/03 00:38:36;;;;;;;;;;;;;;;20.15;46.13;95675.63;6121362;19;2062;-68
2022/11/03 00:40:39;;;;;;;;;;;;;;;20.16;46.39;95679.94;6100551;19;2150;-68
2022/11/03 00:42:43;;;;;;;;;;;;;;;20.17;46.37;95686.09;6118169;19;2059;-68
2022/11/03 00:44:46;;;;;;;;;;;;;;;20.16;46.51;95682.63;6119657;19;1325;-69
2022/11/03 00:46:49;;;;;;;;;;;;;;;20.17;46.28;95683.44;6120092;19;1920;-69
2022/11/03 00:48:53;;;;;;;;;;;;;;;20.17;46.76;95680.75;6121096;19;1896;-68
2022/11/03 00:51:01;;;;;;;;;;;;;;;20.17;46.84;95689.59;6120219;19;1420;-69
2022/11/03 00:53:04;;;;;;;;;;;;;;;20.17;46.76;95688.78;6094701;19;1952;-69
2022/11/03 00:55:08;;;;;;;;;;;;;;;20.18;46.65;95687.78;6119386;19;2210;-69
2022/11/03 00:57:11;;;;;;;;;;;;;;;20.16;46.54;95690.63;6120589;19;2060;-69
2022/11/03 00:59:15;;;;;;;;;;;;;;;20.16;46.29;95693.28;6120092;19;1948;-69
2022/11/03 01:01:19;;;;;;;;;;;;;;;20.17;46.27;95691.44;6121143;19;1904;-69
2022/11/03 01:03:22;;;;;;;;;;;;;;;20.16;46.40;95693.28;6109390;19;1827;-69
2022/11/03 01:07:44;;;;;;;;;;;;;;;20.17;46.72;95696.78;6120907;19;1879;-69
2022/11/03 01:09:47;;;;;;;;;;;;;;;20.16;46.35;95689.78;6119649;19;1988;-69
2022/11/03 01:11:51;;;;;;;;;;;;;;;20.16;46.51;95690.63;6120033;19;2073;-69
2022/11/03 01:13:55;;;;;;;;;;;;;;;20.16;46.46;95684.47;6119394;19;1879;-69
2022/11/03 01:15:58;;;;;;;;;;;;;;;20.15;46.44;95688.97;6094902;19;1753;-69
2022/11/03 01:18:02;;;;;;;;;;;;;;;20.16;46.47;95684.47;6119788;19;2111;-69
2022/11/03 01:20:05;;;;;;;;;;;;;;;20.17;46.42;95691.44;6122237;19;1997;-68
2022/11/03 01:22:09;;;;;;;;;;;;;;;20.16;46.74;95684.47;6118483;19;1906;-68
2022/11/03 01:24:14;;;;;;;;;;;;;;;20.16;46.87;95682.63;6119806;19;1785;-68
2022/11/03 01:26:18;;;;;;;;;;;;;;;20.15;46.92;95686.31;6107615;19;1860;-68
2022/11/03 01:28:21;;;;;;;;;;;;;;;20.15;46.59;95680.97;6107035;19;2102;-67
2022/11/03 01:30:24;;;;;;;;;;;;;;;20.15;46.52;95680.97;6121103;19;1931;-69
2022/11/03 01:32:28;;;;;;;;;;;;;;;20.16;46.46;95682.63;6120446;19;1868;-68
2022/11/03 01:34:31;;;;;;;;;;;;;;;20.15;46.84;95688.97;6121178;19;1934;-68
2022/11/03 01:36:34;;;;;;;;;;;;;;;20.15;46.84;95680.97;6118621;19;2058;-69
2022/11/03 01:38:38;;;;;;;;;;;;;;;20.16;46.44;95679.94;6091116;19;2148;-68
2022/11/03 01:40:44;;;;;;;;;;;;;;;20.16;46.54;95690.63;6121063;19;1689;-68
2022/11/03 01:42:48;;;;;;;;;;;;;;;20.16;46.47;95685.28;6120669;19;1880;-69
2022/11/03 01:44:51;;;;;;;;;;;;;;;20.16;46.86;95692.47;6120550;19;2022;-69
2022/11/03 01:46:55;;;;;;;;;;;;;;;20.16;46.88;95690.63;6118821;19;1855;-69
2022/11/03 01:49:01;;;;;;;;;;;;;;;20.16;46.83;95689.78;6106196;19;2134;-69
2022/11/03 01:51:06;;;;;;;;;;;;;;;20.16;46.73;95685.28;6109227;19;1861;-69
2022/11/03 01:53:09;;;;;;;;;;;;;;;20.16;46.78;95692.47;6121256;19;1664;-69
2022/11/03 01:55:15;;;;;;;;;;;;;;;20.15;46.88;95694.31;6119508;19;1790;-69
2022/11/03 01:57:24;;;;;;;;;;;;;;;20.15;46.74;95696.97;6119607;19;2093;-69
2022/11/03 01:59:28;;;;;;;;;;;;;;;20.15;46.66;95693.50;6119207;19;1847;-69
2022/11/03 02:01:32;;;;;;;;;;;;;;;20.16;46.52;95695.13;6091702;19;1959;-69
2022/11/03 02:03:37;;;;;;;;;;;;;;;20.16;46.36;95697.81;6121551;19;1870;-69
2022/11/03 02:05:42;;;;;;;;;;;;;;;20.15;46.34;95696.97;6119947;19;1914;-69
2022/11/03 02:07:49;;;;;;;;;;;;;;;20.17;46.55;95691.44;6120512;19;2019;-69
2022/11/03 02:09:53;;;;;;;;;;;;;;;20.15;46.45;95705.00;6119490;19;2110;-69
2022/11/03 02:12:06;;;;;;;;;;;;;;;20.14;46.70;95703.31;6093116;19;2084;-68
2022/11/03 02:14:15;;;;;;;;;;;;;;;20.15;46.38;95698.84;6118401;19;2100;-69
2022/11/03 02:16:19;;;;;;;;;;;;;;;20.14;46.23;95692.66;6119580;19;2105;-69
2022/11/03 02:18:24;;;;;;;;;;;;;;;20.15;46.68;95691.66;6119279;19;2107;-69
2022/11/03 02:20:29;;;;;;;;;;;;;;;20.14;46.56;95695.31;6118412;19;2001;-69
2022/11/03 02:22:48;;;;;;;;;;;;;;;20.15;46.79;95694.31;6110232;19;1869;-67
2022/11/03 02:24:52;;;;;;;;;;;;;;;20.15;46.75;95696.97;6104508;19;1866;-70
2022/11/03 02:26:58;;;;;;;;;;;;;;;20.15;46.36;95698.84;6118525;19;1942;-70
2022/11/03 02:29:01;;;;;;;;;;;;;;;20.14;46.76;95697.16;6117645;19;1931;-70
2022/11/03 02:31:11;;;;;;;;;;;;;;;20.12;46.92;95692.03;6118968;19;1918;-72
2022/11/03 02:33:18;;;;;;;;;;;;;;;20.15;46.81;95696.16;6123645;19;1924;-72
2022/11/03 02:35:24;;;;;;;;;;;;;;;20.15;46.92;95693.50;6096895;19;2072;-71
2022/11/03 02:37:30;;;;;;;;;;;;;;;20.15;46.61;95699.66;6124841;19;1854;-71
2022/11/03 02:39:37;;;;;;;;;;;;;;;20.14;46.95;95694.50;6123037;19;1125;-72
2022/11/03 02:41:41;;;;;;;;;;;;;;;20.14;46.83;95691.81;6123204;19;1463;-72
2022/11/03 02:43:47;;;;;;;;;;;;;;;20.14;46.95;95691.81;6122350;19;1706;-72
2022/11/03 02:45:52;;;;;;;;;;;;;;;20.15;46.72;95698.84;6111242;19;2060;-65
2022/11/03 02:47:57;;;;;;;;;;;;;;;20.14;46.69;95697.16;6112239;19;1850;-65
2022/11/03 02:50:00;;;;;;;;;;;;;;;20.15;46.95;95699.66;6123178;19;1927;-64
2022/11/03 02:52:04;;;;;;;;;;;;;;;20.15;47.07;95696.97;6124334;19;1838;-64
2022/11/03 02:54:10;;;;;;;;;;;;;;;20.15;47.11;95696.16;6122944;19;1053;-65
2022/11/03 02:56:16;;;;;;;;;;;;;;;20.15;46.82;95694.31;6125882;19;1750;-66
2022/11/03 02:58:23;;;;;;;;;;;;;;;20.16;47.06;95695.94;6097200;19;1932;-66
2022/11/03 03:00:30;;;;;;;;;;;;;;;20.15;47.09;95688.16;6122467;19;1870;-65
2022/11/03 03:02:37;;;;;;;;;;;;;;;20.16;47.10;95692.47;6124589;19;1888;-65
2022/11/03 03:04:41;;;;;;;;;;;;;;;20.16;46.89;95692.47;6124038;19;1961;-66
2022/11/03 03:06:47;;;;;;;;;;;;;;;20.16;46.70;95685.28;6123081;19;1917;-64
2022/11/03 03:08:54;;;;;;;;;;;;;;;20.17;46.61;95691.44;6110366;19;2096;-66
2022/11/03 03:11:00;;;;;;;;;;;;;;;20.15;46.74;95691.66;6118519;19;1808;-65
2022/11/03 03:13:04;;;;;;;;;;;;;;;20.16;46.99;95695.13;6124618;19;1937;-63
2022/11/03 03:15:09;;;;;;;;;;;;;;;20.16;47.06;95695.94;6122741;19;1863;-65
2022/11/03 03:17:20;;;;;;;;;;;;;;;20.17;46.98;95692.25;6125375;19;2116;-65
2022/11/03 03:19:28;;;;;;;;;;;;;;;20.19;46.50;95690.22;6122762;19;1941;-64
2022/11/03 03:21:35;;;;;;;;;;;;;;;20.21;46.93;95698.06;6095831;19;1772;-64
2022/11/03 03:23:46;;;;;;;;;;;;;;;20.19;46.82;95689.41;6123983;19;1866;-63
2022/11/03 03:25:51;;;;;;;;;;;;;;;20.19;46.74;95695.56;6123819;19;1849;-65
2022/11/03 03:27:56;;;;;;;;;;;;;;;20.18;46.44;95683.25;6123638;19;1658;-65
2022/11/03 03:30:03;;;;;;;;;;;;;;;20.18;46.58;95683.25;6124057;19;2003;-66
2022/11/03 03:32:10;;;;;;;;;;;;;;;20.18;46.84;95687.78;6099106;19;1810;-65
2022/11/03 03:34:17;;;;;;;;;;;;;;;20.16;46.89;95690.63;6121780;19;2034;-67
2022/11/03 03:36:21;;;;;;;;;;;;;;;20.17;46.72;95694.94;6123900;19;1991;-64
2022/11/03 03:38:27;;;;;;;;;;;;;;;20.16;46.44;95695.94;6123752;19;1976;-65
2022/11/03 03:40:33;;;;;;;;;;;;;;;20.16;46.51;95698.63;6125390;19;1726;-65
2022/11/03 03:42:38;;;;;;;;;;;;;;;20.16;46.58;95706.63;6112555;19;1850;-68
2022/11/03 03:44:42;;;;;;;;;;;;;;;20.17;46.62;95699.44;6109509;19;1870;-64
2022/11/03 03:46:48;;;;;;;;;;;;;;;20.17;46.97;95702.09;6123342;19;1774;-64
2022/11/03 03:48:52;;;;;;;;;;;;;;;20.17;46.53;95702.09;6122904;19;1812;-64
2022/11/03 03:50:58;;;;;;;;;;;;;;;20.16;47.03;95701.28;6124729;19;2038;-66
2022/11/03 03:53:02;;;;;;;;;;;;;;;20.16;47.03;95703.97;6125085;19;1851;-64
2022/11/03 03:55:05;;;;;;;;;;;;;;;20.17;47.11;95702.94;6096834;19;2042;-66
2022/11/03 03:57:13;;;;;;;;;;;;;;;20.13;46.90;95703.53;6121240;19;2024;-64
2022/11/03 03:59:17;;;;;;;;;;;;;;;20.11;46.78;95698.38;6122782;19;1874;-67
2022/11/03 04:01:20;;;;;;;;;;;;;;;20.18;46.97;95703.78;6121151;19;2002;-64
2022/11/03 04:03:24;;;;;;;;;;;;;;;20.18;46.92;95699.25;6121564;19;2115;-67
2022/11/03 04:05:28;;;;;;;;;;;;;;;20.14;46.85;95692.66;6112399;19;1921;-69
2022/11/03 04:07:50;;;;;;;;;;;;;;;20.19;46.89;95703.56;6108916;19;1823;-65
2022/11/03 04:09:53;;;;;;;;;;;;;;;20.21;46.79;95709.56;6123746;19;1985;-67
2022/11/03 04:23:18;;;;;;;;;;;;;;;18.82;38.48;95713.28;6123961;19;2092;-65
2022/11/03 04:25:21;;;;;;;;;;;;;;;18.80;37.68;95710.78;6124008;19;1905;-66
2022/11/03 04:27:29;;;;;;;;;;;;;;;18.81;38.07;95708.94;6120554;19;1931;-64
2022/11/03 04:29:33;;;;;;;;;;;;;;;18.78;37.69;95704.84;6095569;19;2051;-64
2022/11/03 04:31:37;;;;;;;;;;;;;;;18.61;37.32;95706.81;6120870;19;1793;-63
2022/11/03 04:33:41;;;;;;;;;;;;;;;18.67;37.55;95699.97;6123026;19;1718;-64
2022/11/03 04:35:45;;;;;;;;;;;;;;;18.68;37.55;95706.94;6121122;19;1952;-64
2022/11/03 04:37:52;;;;;;;;;;;;;;;18.60;37.41;95710.47;6123875;19;1569;-64
2022/11/03 04:40:00;;;;;;;;;;;;;;;18.62;37.29;95704.97;6106638;19;2273;-65
2022/11/03 04:42:14;;;;;;;;;;;;;;;18.58;37.14;95704.53;6104672;19;1460;-66
2022/11/03 04:44:17;;;;;;;;;;;;;;;18.54;37.17;95706.69;6123934;19;1723;-65
2022/11/03 04:46:25;;;;;;;;;;;;;;;18.47;36.63;95704.97;6121036;19;2123;-65
2022/11/03 04:48:30;;;;;;;;;;;;;;;18.67;37.34;95715.94;6122443;19;1914;-64
2022/11/03 04:50:34;;;;;;;;;;;;;;;18.92;37.81;95706.69;6120236;19;958;-65
2022/11/03 04:52:37;;;;;;;;;;;;;;;19.10;38.03;95700.13;6095193;19;1918;-64
2022/11/03 04:54:40;;;;;;;;;;;;;;;19.17;37.54;95703.69;6118263;19;1132;-64
2022/11/03 04:56:46;;;;;;;;;;;;;;;19.21;37.90;95707.66;6119045;19;1510;-64
2022/11/03 04:58:50;;;;;;;;;;;;;;;19.28;37.57;95707.72;6117171;19;1841;-63
2022/11/03 05:00:54;;;;;;;;;;;;;;;19.31;37.91;95704.69;6120106;19;1834;-66
2022/11/03 05:02:57;;;;;;;;;;;;;;;18.87;37.13;95702.91;6108661;19;1979;-65
2022/11/03 05:05:01;;;;;;;;;;;;;;;18.66;37.26;95711.59;6106026;19;1117;-66
2022/11/03 05:07:04;;;;;;;;;;;;;;;18.53;36.75;95705.06;6118953;19;1848;-66
2022/11/03 05:09:13;;;;;;;;;;;;;;;18.34;36.65;95708.22;6119393;19;1857;-67
2022/11/03 05:11:18;;;;;;;;;;;;;;;18.30;36.42;95710.44;6119300;19;2020;-67
2022/11/03 05:13:26;;;;;;;;;;;;;;;18.27;36.19;95704.66;6120988;19;1904;-66
2022/11/03 05:15:32;;;;;;;;;;;;;;;18.21;36.16;95713.31;6094516;19;1823;-67
2022/11/03 05:17:35;;;;;;;;;;;;;;;18.23;36.09;95714.81;6122073;19;1667;-66
2022/11/03 05:19:40;;;;;;;;;;;;;;;18.17;36.20;95715.53;6119347;19;2148;-66
2022/11/03 05:21:43;;;;;;;;;;;;;;;18.12;36.24;95722.38;6119768;19;1978;-65
2022/11/03 05:23:48;;;;;;;;;;;;;;;18.26;36.84;95721.59;6121284;19;1913;-68
2022/11/03 05:25:53;;;;;;;;;;;;;;;18.20;36.43;95723.16;6105612;19;1440;-65
2022/11/03 05:27:56;;;;;;;;;;;;;;;18.15;36.51;95728.16;6106357;19;1345;-65
2022/11/03 05:30:02;;;;;;;;;;;;;;;18.19;35.97;95726.00;6117168;19;1619;-65
2022/11/03 05:32:11;;;;;;;;;;;;;;;18.07;36.21;95721.09;6118954;19;1062;-67
2022/11/03 05:34:23;;;;;;;;;;;;;;;18.05;35.90;95723.09;6118986;19;997;-65
2022/11/03 05:36:27;;;;;;;;;;;;;;;18.01;36.12;95729.78;6119174;19;1036;-67
2022/11/03 05:38:31;;;;;;;;;;;;;;;18.08;36.23;95733.38;6092988;19;1845;-65
2022/11/03 05:40:35;;;;;;;;;;;;;;;18.11;35.95;95737.53;6118658;19;1021;-66
2022/11/03 05:42:40;;;;;;;;;;;;;;;18.12;36.33;95739.16;6118957;19;1044;-65
2022/11/03 05:44:43;;;;;;;;;;;;;;;18.12;36.29;95746.31;6118968;19;1008;-65
2022/11/03 05:46:49;;;;;;;;;;;;;;;18.08;35.94;95738.69;6118641;19;1009;-66
2022/11/03 05:48:53;;;;;;;;;;;;;;;18.04;35.98;95741.88;6103013;19;1335;-66
2022/11/03 05:50:59;;;;;;;;;;;;;;;18.06;36.60;95747.84;6113216;19;1133;-66
2022/11/03 05:53:05;;;;;;;;;;;;;;;18.06;36.24;95751.34;6118699;19;1027;-67
2022/11/03 05:55:19;;;;;;;;;;;;;;;18.03;35.93;95759.66;6118565;19;954;-65
2022/11/03 05:57:22;;;;;;;;;;;;;;;18.06;36.18;95755.84;6119030;19;1614;-65
2022/11/03 05:59:28;;;;;;;;;;;;;;;18.07;36.42;95758.34;6112317;19;1841;-66
2022/11/03 06:01:33;;;;;;;;;;;;;;;18.08;36.16;95764.47;6102359;19;1033;-66
2022/11/03 06:03:38;;;;;;;;;;;;;;;18.10;36.45;95763.28;6117402;19;1322;-67
2022/11/03 06:05:42;;;;;;;;;;;;;;;18.41;36.89;95775.69;6118198;19;1058;-66
2022/11/03 06:07:46;;;;;;;;;;;;;;;18.69;36.94;95765.28;6120611;19;1463;-67
2022/11/03 06:09:49;;;;;;;;;;;;;;;18.88;37.05;95777.25;6123736;19;1148;-68
2022/11/03 06:11:53;;;;;;;;;;;;;;;19.00;36.93;95774.97;6098842;19;1646;-68
2022/11/03 06:13:58;;;;;;;;;;;;;;;19.09;37.46;95775.72;6124346;19;1025;-66
2022/11/03 06:16:03;;;;;;;;;;;;;;;19.15;37.75;95780.31;6123818;19;1065;-65
2022/11/03 06:18:14;;;;;;;;;;;;;;;19.22;37.48;95783.91;6123470;19;1196;-66
2022/11/03 06:20:22;;;;;;;;;;;;;;;19.26;37.51;95779.84;6122650;19;1846;-65
2022/11/03 06:22:27;;;;;;;;;;;;;;;19.30;37.37;95791.81;6111168;19;1094;-66
2022/11/03 06:24:32;;;;;;;;;;;;;;;19.31;37.58;95780.13;6109802;19;1201;-66
2022/11/03 06:26:36;;;;;;;;;;;;;;;19.34;37.68;95785.06;6123575;19;1132;-66
2022/11/03 06:28:40;;;;;;;;;;;;;;;19.36;37.21;95788.38;6124057;19;950;-65
2022/11/03 06:30:43;;;;;;;;;;;;;;;19.38;37.47;95791.72;6123500;19;1132;-69
2022/11/03 06:32:47;;;;;;;;;;;;;;;19.40;37.62;95788.84;6120524;19;1540;-68
2022/11/03 06:34:51;;;;;;;;;;;;;;;19.42;38.03;95789.50;6095393;19;1408;-68
2022/11/03 06:36:58;;;;;;;;;;;;;;;19.43;38.51;95791.13;6123480;19;1085;-68
2022/11/03 06:39:03;;;;;;;;;;;;;;;19.44;38.52;95800.81;6122874;19;1849;-69
2022/11/03 06:41:06;;;;;;;;;;;;;;;19.47;38.51;95803.09;6123563;19;1020;-69
2022/11/03 06:43:20;;;;;;;;;;;;;;;19.48;38.64;95801.25;6123182;19;963;-69
2022/11/03 06:45:25;;;;;;;;;;;;;;;19.48;38.42;95804.72;6110377;19;1053;-68
2022/11/03 06:47:30;;;;;;;;;;;;;;;19.50;38.66;95801.91;6109672;19;1396;-69
2022/11/03 06:49:34;;;;;;;;;;;;;;;19.51;38.99;95803.53;6123480;19;1347;-69
2022/11/03 06:51:38;;;;;;;;;;;;;;;19.51;39.08;95795.53;6123613;19;1282;-68
2022/11/03 06:53:44;;;;;;;;;;;;;;;19.54;39.12;95800.53;6122766;19;1072;-69
2022/11/03 06:55:47;;;;;;;;;;;;;;;19.56;38.91;95801.19;6122814;19;1064;-69
2022/11/03 06:57:53;;;;;;;;;;;;;;;19.57;38.39;95798.31;6097742;19;1356;-69
2022/11/03 06:59:57;;;;;;;;;;;;;;;19.59;38.03;95798.16;6121110;19;1845;-69
2022/11/03 07:02:00;;;;;;;;;;;;;;;19.59;38.02;95790.16;6120059;19;1203;-69
2022/11/03 07:04:05;;;;;;;;;;;;;;;19.60;37.70;95797.13;6122671;19;990;-69
2022/11/03 07:06:14;;;;;;;;;;;;;;;19.60;37.52;95791.78;6123341;19;1199;-69
2022/11/03 07:08:23;;;;;;;;;;;;;;;19.60;37.75;95792.59;6099147;19;1783;-69
2022/11/03 07:10:30;;;;;;;;;;;;;;;19.61;37.55;95785.47;6121771;19;1147;-69
2022/11/03 07:12:34;;;;;;;;;;;;;;;19.61;37.91;95786.28;6122363;19;1128;-69
2022/11/03 07:14:38;;;;;;;;;;;;;;;19.62;37.90;95784.44;6122047;19;958;-70
2022/11/03 07:16:43;;;;;;;;;;;;;;;19.63;37.84;95784.25;6121432;19;1279;-69
2022/11/03 07:18:46;;;;;;;;;;;;;;;19.64;37.50;95788.56;6121596;19;1013;-69
2022/11/03 07:20:50;;;;;;;;;;;;;;;19.65;37.39;95784.06;6095262;19;1841;-69
2022/11/03 07:22:54;;;;;;;;;;;;;;;19.66;37.60;95783.03;6122536;19;1060;-70
2022/11/03 07:24:58;;;;;;;;;;;;;;;19.67;37.75;95787.38;6121333;19;973;-69
2022/11/03 07:27:15;;;;;;;;;;;;;;;19.65;37.77;95784.88;6122218;19;1144;-69
2022/11/03 07:29:22;;;;;;;;;;;;;;;19.67;37.45;95785.53;6119775;19;1463;-69
2022/11/03 07:31:26;;;;;;;;;;;;;;;19.68;37.67;95783.69;6095709;19;1359;-69
2022/11/03 07:33:31;;;;;;;;;;;;;;;19.68;37.89;95786.34;6122255;19;1032;-69
2022/11/03 07:35:36;;;;;;;;;;;;;;;19.69;37.61;95780.03;6120284;19;1620;-70
2022/11/03 07:37:39;;;;;;;;;;;;;;;19.70;37.79;95781.66;6121613;19;1140;-69
2022/11/03 07:39:42;;;;;;;;;;;;;;;19.71;37.41;95783.31;6120408;19;1857;-69
2022/11/03 07:41:46;;;;;;;;;;;;;;;19.72;37.89;95781.47;6109563;19;1095;-69
2022/11/03 07:43:55;;;;;;;;;;;;;;;19.72;37.56;95776.97;6107809;19;1164;-69
2022/11/03 07:46:00;;;;;;;;;;;;;;;19.72;37.62;95784.97;6120842;19;1041;-69
2022/11/03 07:48:06;;;;;;;;;;;;;;;19.73;37.86;95770.63;6121875;19;1052;-69
2022/11/03 07:50:16;;;;;;;;;;;;;;;19.73;37.53;95775.97;6121818;19;983;-70
2022/11/03 07:52:21;;;;;;;;;;;;;;;19.74;37.99;95766.13;6121378;19;1244;-69
2022/11/03 07:54:27;;;;;;;;;;;;;;;19.73;38.01;95765.28;6094467;19;1586;-69
2022/11/03 07:56:35;;;;;;;;;;;;;;;19.75;38.01;95773.94;6121109;19;1053;-68
2022/11/03 07:58:40;;;;;;;;;;;;;;;19.74;37.84;95772.28;6120383;19;1334;-69
2022/11/03 08:00:46;;;;;;;;;;;;;;;19.76;37.96;95764.09;6119176;19;1829;-69
2022/11/03 08:02:50;;;;;;;;;;;;;;;19.76;37.80;95764.91;6120957;19;1069;-69
2022/11/03 08:04:54;;;;;;;;;;;;;;;19.75;37.90;95768.59;6107955;19;1152;-69
2022/11/03 08:06:57;;;;;;;;;;;;;;;19.76;38.00;95756.91;6109917;19;1097;-69
2022/11/03 08:09:00;;;;;;;;;;;;;;;19.77;37.81;95758.56;6120189;19;1128;-73
2022/11/03 08:11:04;;;;;;;;;;;;;;;19.80;38.38;95757.34;6122072;19;931;-80
2022/11/03 08:13:07;;;;;;;;;;;;;;;19.80;38.17;95755.50;6121877;19;1065;-76
2022/11/03 08:15:11;;;;;;;;;;;;;;;19.81;38.27;95751.84;6120736;19;1044;-75
2022/11/03 08:17:17;;;;;;;;;;;;;;;19.82;38.55;95748.16;6096527;19;1262;-76
2022/11/03 08:19:20;;;;;;;;;;;;;;;19.85;38.49;95747.78;6121158;19;1017;-69
2022/11/03 08:21:24;;;;;;;;;;;;;;;19.83;38.39;95743.66;6118805;19;1842;-69
2022/11/03 08:23:27;;;;;;;;;;;;;;;19.85;38.24;95742.44;6120040;19;1540;-69
2022/11/03 08:25:31;;;;;;;;;;;;;;;19.85;38.33;95741.63;6120292;19;961;-70
2022/11/03 08:27:34;;;;;;;;;;;;;;;19.85;38.14;95736.28;6107638;19;1413;-69
2022/11/03 08:29:37;;;;;;;;;;;;;;;19.85;38.28;95737.09;6105488;19;1156;-69
2022/11/03 08:31:41;;;;;;;;;;;;;;;19.84;38.49;95730.13;6119437;19;1058;-69
2022/11/03 08:33:47;;;;;;;;;;;;;;;19.86;38.17;95738.78;6120699;19;1011;-70
2022/11/03 08:35:50;;;;;;;;;;;;;;;19.87;38.33;95734.25;6119824;19;1073;-69
2022/11/03 08:37:54;;;;;;;;;;;;;;;19.86;38.32;95728.09;6118045;19;1469;-70
2022/11/03 08:39:57;;;;;;;;;;;;;;;19.87;38.38;95729.75;6094312;19;1846;-70
2022/11/03 08:42:00;;;;;;;;;;;;;;;19.86;38.23;95733.44;6118339;19;1487;-69
2022/11/03 08:44:04;;;;;;;;;;;;;;;19.91;38.24;95732.03;6120202;19;1037;-69
2022/11/03 08:46:08;;;;;;;;;;;;;;;19.89;38.96;95733.06;6119250;19;1034;-70
2022/11/03 08:48:11;;;;;;;;;;;;;;;19.89;39.08;95730.41;6119754;19;1143;-69
2022/11/03 08:50:17;;;;;;;;;;;;;;;19.89;39.15;95722.41;6103847;19;1325;-70
2022/11/03 08:52:20;;;;;;;;;;;;;;;19.87;39.42;95731.59;6115609;19;1167;-69
2022/11/03 08:54:24;;;;;;;;;;;;;;;19.88;39.17;95727.91;6119601;19;1136;-69
2022/11/03 08:56:27;;;;;;;;;;;;;;;19.91;38.84;95724.03;6119416;19;1499;-69
2022/11/03 08:58:30;;;;;;;;;;;;;;;19.92;39.20;95726.53;6119080;19;1356;-69
2022/11/03 09:00:34;;;;;;;;;;;;;;;19.94;38.92;95731.66;6118166;19;1837;-69
2022/11/03 09:02:37;;;;;;;;;;;;;;;19.93;39.02;95728.16;6093446;19;1489;-69
2022/11/03 09:04:41;;;;;;;;;;;;;;;19.95;39.31;95728.00;6119656;19;1025;-69
2022/11/03 09:06:47;;;;;;;;;;;;;;;19.95;38.97;95726.16;6119040;19;1073;-69
2022/11/03 09:08:50;;;;;;;;;;;;;;;19.96;39.62;95721.63;6119213;19;1025;-69
2022/11/03 09:10:53;;;;;;;;;;;;;;;19.98;39.43;95724.94;6119434;19;968;-69
2022/11/03 09:12:57;;;;;;;;;;;;;;;19.98;39.66;95728.44;6103771;19;1101;-75
2022/11/03 09:15:00;;;;;;;;;;;;;;;19.99;39.24;95723.91;6114068;19;1142;-75
2022/11/03 09:17:03;;;;;;;;;;;;;;;20.01;39.60;95711.22;6118864;19;1046;-75
2022/11/03 09:19:07;;;;;;;;;;;;;;;20.01;39.23;95714.72;6119561;19;958;-75
2022/11/03 09:21:10;;;;;;;;;;;;;;;20.01;39.20;95711.22;6118359;19;1853;-76
2022/11/03 09:23:16;;;;;;;;;;;;;;;20.01;39.35;95709.38;6117492;19;1532;-74
2022/11/03 09:25:20;;;;;;;;;;;;;;;20.02;39.21;95710.19;6095842;19;1175;-76
2022/11/03 09:27:23;;;;;;;;;;;;;;;20.03;39.43;95711.84;6118332;19;1054;-75
2022/11/03 09:29:26;;;;;;;;;;;;;;;20.00;39.38;95706.88;6118143;19;1132;-74
2022/11/03 09:31:30;;;;;;;;;;;;;;;20.02;39.22;95694.19;6118648;19;1037;-73
2022/11/03 09:33:33;;;;;;;;;;;;;;;20.03;39.48;95706.50;6119190;19;1064;-76
2022/11/03 09:35:37;;;;;;;;;;;;;;;20.04;39.55;95697.50;6108864;19;1053;-78
2022/11/03 09:37:40;;;;;;;;;;;;;;;20.04;39.43;95700.97;6112476;19;1425;-69
2022/11/03 09:39:46;;;;;;;;;;;;;;;20.04;39.59;95689.50;6118714;19;1025;-68
2022/11/03 09:41:49;;;;;;;;;;;;;;;20.05;39.49;95683.13;6126079;19;1862;-72
2022/11/03 09:43:53;;;;;;;;;;;;;;;20.05;39.53;95688.47;6129632;19;1065;-73
2022/11/03 09:45:56;;;;;;;;;;;;;;;20.04;39.50;95681.50;6130116;19;958;-63
2022/11/03 09:47:59;;;;;;;;;;;;;;;20.05;39.78;95680.47;6104377;19;1193;-73
2022/11/03 09:50:03;;;;;;;;;;;;;;;20.07;39.80;95678.44;6130352;19;1025;-72
2022/11/03 09:52:07;;;;;;;;;;;;;;;20.08;39.73;95672.06;6129258;19;1073;-73
2022/11/03 09:54:13;;;;;;;;;;;;;;;20.07;39.59;95675.78;6130549;19;1029;-73
2022/11/03 09:56:21;;;;;;;;;;;;;;;20.07;39.88;95670.44;6130010;19;1013;-68
2022/11/03 09:58:24;;;;;;;;;;;;;;;20.09;39.52;95665.75;6111442;19;1152;-68
2022/11/03 10:00:28;;;;;;;;;;;;;;;20.08;39.74;95664.06;6122873;19;1857;-67
2022/11/03 10:02:33;;;;;;;;;;;;;;;20.09;39.62;95663.88;6128018;19;1559;-67
2022/11/03 10:04:36;;;;;;;;;;;;;;;20.12;39.55;95660.00;6129677;19;1082;-67
2022/11/03 10:06:40;;;;;;;;;;;;;;;20.13;39.93;95653.66;6128646;19;1065;-67
2022/11/03 10:08:45;;;;;;;;;;;;;;;20.14;39.68;95649.94;6129977;19;1758;-67
2022/11/03 10:10:48;;;;;;;;;;;;;;;20.15;39.74;95646.28;6104173;19;1474;-68
2022/11/03 10:12:55;;;;;;;;;;;;;;;20.16;39.96;95653.25;6129565;19;1037;-68
2022/11/03 10:14:58;;;;;;;;;;;;;;;20.16;39.86;95645.25;6128973;19;1013;-68
2022/11/03 10:17:02;;;;;;;;;;;;;;;20.16;39.67;95631.91;6129651;19;1022;-66
2022/11/03 10:19:05;;;;;;;;;;;;;;;20.18;39.74;95637.91;6129700;19;1017;-66
2022/11/03 10:21:14;;;;;;;;;;;;;;;20.18;39.62;95635.22;6108779;19;1854;-66
2022/11/03 10:23:17;;;;;;;;;;;;;;;20.18;39.73;95629.06;6128887;19;1081;-66
2022/11/03 10:25:27;;;;;;;;;;;;;;;20.18;39.98;95626.41;6131574;19;1449;-68
2022/11/03 10:27:31;;;;;;;;;;;;;;;20.19;39.99;95620.03;6130798;19;1456;-67
2022/11/03 10:29:37;;;;;;;;;;;;;;;20.18;39.79;95615.72;6129005;19;1022;-68
2022/11/03 10:31:41;;;;;;;;;;;;;;;20.18;39.76;95616.53;6129582;19;1058;-68
2022/11/03 10:33:53;;;;;;;;;;;;;;;20.19;39.95;95606.69;6104586;19;1288;-68
2022/11/03 10:35:57;;;;;;;;;;;;;;;20.19;39.82;95602.19;6128507;19;1073;-68
2022/11/03 10:38:20;;;;;;;;;;;;;;;20.19;39.80;95604.03;6128759;19;1104;-68
2022/11/03 10:40:35;;;;;;;;;;;;;;;20.15;40.36;95602.78;6129528;19;1836;-68
2022/11/03 10:42:38;;;;;;;;;;;;;;;20.14;40.29;95593.94;6128586;19;1057;-68
2022/11/03 10:44:44;;;;;;;;;;;;;;;20.16;40.39;95593.75;6103177;19;1132;-69
2022/11/03 10:46:57;;;;;;;;;;;;;;;20.13;40.31;95584.28;6128931;19;1053;-70
2022/11/03 10:49:05;;;;;;;;;;;;;;;20.13;40.75;95586.94;6126920;19;1483;-69
2022/11/03 10:51:11;;;;;;;;;;;;;;;20.14;40.75;95580.59;6128114;19;1060;-66
2022/11/03 10:53:18;;;;;;;;;;;;;;;20.16;40.50;95580.41;6123043;19;1064;-73
2022/11/03 10:55:22;;;;;;;;;;;;;;;20.16;40.87;95578.56;6099240;19;1058;-73
2022/11/03 10:57:26;;;;;;;;;;;;;;;20.17;40.47;95574.84;6119764;19;1407;-66
2022/11/03 10:59:32;;;;;;;;;;;;;;;20.16;40.64;95565.22;6120698;19;1348;-65
2022/11/03 11:01:38;;;;;;;;;;;;;;;20.18;40.82;95560.50;6121357;19;1850;-64
2022/11/03 11:03:43;;;;;;;;;;;;;;;20.18;40.61;95562.38;6122744;19;1081;-65
2022/11/03 11:05:46;;;;;;;;;;;;;;;20.18;40.99;95544.50;6122293;19;1016;-64
2022/11/03 11:07:50;;;;;;;;;;;;;;;20.18;40.95;95549.03;6099511;19;1161;-63
2022/11/03 11:09:54;;;;;;;;;;;;;;;20.17;40.81;95545.50;6122809;19;1021;-65
2022/11/03 11:12:02;;;;;;;;;;;;;;;20.17;40.89;95548.19;6122494;19;1016;-64
2022/11/03 11:14:21;;;;;;;;;;;;;;;20.16;41.03;95545.72;6121534;19;1321;-67
2022/11/03 11:16:39;;;;;;;;;;;;;;;20.17;40.98;95534.84;6120207;19;1531;-66